Time;durP1;ratioP1;P1;durP2;ratioP2;P2;SDS_P1;SDS_P2;PMS_P1;PMS_P2;Temp;Humidity;BMP_temperature;BMP_pressure;BME280_temperature;BME280_humidity;BME280_pressure;Samples;Min_cycle;Max_cycle;Signal;HPM_P1;HPM_P2
2022/10/25 00:00:56;;;;;;;19.3;24.2;;;;;;;14.9;89;98720;;;;
2022/10/25 00:10:56;;;;;;;14.4;19.6;;;;;;;15;88.9;98710;;;;
2022/10/25 00:20:56;;;;;;;14.4;19.6;;;;;;;15;88.7;98710;;;;
2022/10/25 00:30:56;;;;;;;14.4;19.6;;;;;;;15.1;88.6;98700;;;;
2022/10/25 00:41:56;;;;;;;15.7;19.3;;;;;;;15.1;88.3;98690;;;;
2022/10/25 00:52:56;;;;;;;15.7;19.3;;;;;;;15;88.3;98700;;;;
2022/10/25 01:03:56;;;;;;;15.7;19.3;;;;;;;15.1;88.4;98710;;;;
2022/10/25 01:13:56;;;;;;;15;19;;;;;;;15.1;88.3;98690;;;;
2022/10/25 01:23:56;;;;;;;15;19;;;;;;;14.9;88.1;98690;;;;
2022/10/25 01:34:56;;;;;;;15;19;;;;;;;14.8;88.4;98710;;;;
2022/10/25 01:44:56;;;;;;;16;20.8;;;;;;;14.7;88.9;98710;;;;
2022/10/25 01:55:56;;;;;;;16;20.8;;;;;;;14.6;88.9;98720;;;;
2022/10/25 02:06:56;;;;;;;16;20.8;;;;;;;14.4;89.2;98710;;;;
2022/10/25 02:16:56;;;;;;;16;21.5;;;;;;;14.2;89.5;98710;;;;
2022/10/25 02:27:56;;;;;;;16;21.5;;;;;;;14;89.5;98710;;;;
2022/10/25 02:38:56;;;;;;;16;21.5;;;;;;;14.1;89.9;98730;;;;
2022/10/25 02:49:56;;;;;;;15.7;20.1;;;;;;;14.1;90.5;98710;;;;
2022/10/25 03:00:56;;;;;;;15.7;20.1;;;;;;;14.2;90.8;98710;;;;
2022/10/25 03:10:56;;;;;;;14.8;18;;;;;;;14.2;90.3;98700;;;;
2022/10/25 03:20:56;;;;;;;14.8;18;;;;;;;14.2;89.8;98710;;;;
2022/10/25 03:31:56;;;;;;;14.8;18;;;;;;;14.3;89.7;98730;;;;
2022/10/25 03:42:56;;;;;;;12.8;17.5;;;;;;;14.3;89.9;98730;;;;
2022/10/25 03:52:56;;;;;;;12.8;17.5;;;;;;;14.3;89.9;98730;;;;
2022/10/25 04:03:56;;;;;;;12.8;17.5;;;;;;;14.4;89.6;98740;;;;
2022/10/25 04:13:56;;;;;;;12.4;18.6;;;;;;;14.4;89.5;98740;;;;
2022/10/25 04:24:56;;;;;;;12.4;18.6;;;;;;;14.4;89.2;98740;;;;
2022/10/25 04:35:56;;;;;;;12.4;18.6;;;;;;;14.3;89.4;98750;;;;
2022/10/25 04:45:56;;;;;;;14.6;18.5;;;;;;;14.3;89.3;98740;;;;
2022/10/25 04:55:56;;;;;;;14.6;18.5;;;;;;;14.2;88.7;98740;;;;
2022/10/25 05:06:56;;;;;;;14.6;18.5;;;;;;;14.1;88.8;98750;;;;
2022/10/25 05:16:56;;;;;;;13.9;17.8;;;;;;;14.1;88.5;98730;;;;
2022/10/25 05:26:56;;;;;;;13.9;17.8;;;;;;;14;88.2;98730;;;;
2022/10/25 05:37:56;;;;;;;13.9;17.8;;;;;;;13.9;87.9;98740;;;;
2022/10/25 05:48:56;;;;;;;12.4;16;;;;;;;13.7;87.6;98750;;;;
2022/10/25 05:59:56;;;;;;;12.4;16;;;;;;;13.4;87.5;98760;;;;
2022/10/25 06:09:56;;;;;;;10.8;15.3;;;;;;;13.3;88.5;98780;;;;
2022/10/25 06:19:56;;;;;;;10.8;15.3;;;;;;;13.4;89.9;98800;;;;
2022/10/25 06:29:56;;;;;;;10.8;15.3;;;;;;;13.8;90;98800;;;;
2022/10/25 06:40:56;;;;;;;7.6;10.8;;;;;;;13.9;89.4;98810;;;;
2022/10/25 06:50:56;;;;;;;7.6;10.8;;;;;;;13.8;88.9;98830;;;;
2022/10/25 07:01:56;;;;;;;7.6;10.8;;;;;;;14;88.8;98830;;;;
2022/10/25 07:12:56;;;;;;;8.4;12.9;;;;;;;14.2;88.7;98850;;;;
2022/10/25 07:23:56;;;;;;;8.4;12.9;;;;;;;14.5;88.4;98860;;;;
2022/10/25 07:33:56;;;;;;;8.4;12.9;;;;;;;15;87.9;98860;;;;
2022/10/25 07:44:56;;;;;;;8.9;12.9;;;;;;;15.7;86.6;98830;;;;
2022/10/25 07:55:56;;;;;;;8.9;12.9;;;;;;;15.9;85.1;98820;;;;
2022/10/25 08:06:56;;;;;;;8.9;12.9;;;;;;;16.1;84.1;98810;;;;
2022/10/25 08:16:56;;;;;;;10;13.1;;;;;;;16.3;83.8;98800;;;;
2022/10/25 08:26:56;;;;;;;10;13.1;;;;;;;16.4;82.4;98790;;;;
2022/10/25 08:37:56;;;;;;;10;13.1;;;;;;;16.7;80.9;98790;;;;
2022/10/25 08:47:56;;;;;;;8.1;10.7;;;;;;;17;80;98820;;;;
2022/10/25 08:58:57;;;;;;;8.1;10.7;;;;;;;17.3;78.4;98840;;;;
2022/10/25 09:09:56;;;;;;;5.9;14.9;;;;;;;17.2;77.5;98850;;;;
2022/10/25 09:19:56;;;;;;;5.9;14.9;;;;;;;17.2;77.1;98860;;;;
2022/10/25 09:30:56;;;;;;;5.9;14.9;;;;;;;17.4;76.8;98850;;;;
2022/10/25 09:40:56;;;;;;;5.8;9.2;;;;;;;17.4;74.2;98870;;;;
2022/10/25 09:51:56;;;;;;;5.8;9.2;;;;;;;17.3;75.3;98870;;;;
2022/10/25 10:02:56;;;;;;;5.8;9.2;;;;;;;16.8;76.1;98870;;;;
2022/10/25 10:12:56;;;;;;;3.6;6.4;;;;;;;16.8;77.4;98880;;;;
2022/10/25 10:23:56;;;;;;;3.6;6.4;;;;;;;16.2;79.6;98880;;;;
2022/10/25 10:33:56;;;;;;;3.6;6.4;;;;;;;16.5;79.7;98870;;;;
2022/10/25 10:43:56;;;;;;;4.9;9;;;;;;;16.6;78.8;98870;;;;
2022/10/25 10:54:56;;;;;;;4.9;9;;;;;;;16.8;78.9;98860;;;;
2022/10/25 11:04:56;;;;;;;4.9;9;;;;;;;16.9;78.9;98870;;;;
2022/10/25 11:15:56;;;;;;;4;8.1;;;;;;;16.7;78.6;98880;;;;
2022/10/25 11:25:56;;;;;;;4;8.1;;;;;;;17;78.2;98870;;;;
2022/10/25 11:36:56;;;;;;;4;8.1;;;;;;;17.6;76.9;98870;;;;
2022/10/25 11:47:56;;;;;;;4.4;7.8;;;;;;;17.5;76.2;98870;;;;
2022/10/25 11:58:56;;;;;;;4.4;7.8;;;;;;;17.8;75.1;98850;;;;
2022/10/25 12:08:56;;;;;;;4.4;7.8;;;;;;;17.6;75.2;98850;;;;
2022/10/25 12:18:56;;;;;;;4.7;10.1;;;;;;;17.9;74.3;98850;;;;
2022/10/25 12:29:56;;;;;;;4.7;10.1;;;;;;;18.1;74.2;98840;;;;
2022/10/25 12:40:56;;;;;;;4;6.7;;;;;;;18.2;73.1;98840;;;;
2022/10/25 12:51:56;;;;;;;4;6.7;;;;;;;18.4;71.9;98840;;;;
2022/10/25 13:02:56;;;;;;;4;6.7;;;;;;;18.8;70.8;98850;;;;
2022/10/25 13:13:56;;;;;;;3.3;7.6;;;;;;;19;67.6;98840;;;;
2022/10/25 13:23:58;;;;;;;3.3;7.6;;;;;;;18.7;68.5;98840;;;;
2022/10/25 13:34:57;;;;;;;3.3;7.6;;;;;;;18.4;69.6;98850;;;;
2022/10/25 13:45:56;;;;;;;3.7;7.1;;;;;;;18.1;70.6;98850;;;;
2022/10/25 13:56:56;;;;;;;3.7;7.1;;;;;;;18.2;70.6;98850;;;;
2022/10/25 14:07:56;;;;;;;3.7;7.1;;;;;;;18;70;98860;;;;
2022/10/25 14:17:56;;;;;;;4.2;8.1;;;;;;;18.1;69.8;98870;;;;
2022/10/25 14:27:56;;;;;;;4.2;8.1;;;;;;;18;70.2;98870;;;;
2022/10/25 14:38:56;;;;;;;4.2;8.1;;;;;;;18;70.9;98880;;;;
2022/10/25 14:49:56;;;;;;;3.4;7.6;;;;;;;17.8;73;98860;;;;
2022/10/25 15:00:56;;;;;;;3.4;7.6;;;;;;;17.7;72.4;98880;;;;
2022/10/25 15:10:56;;;;;;;3.5;8.6;;;;;;;17.4;72.7;98880;;;;
2022/10/25 15:20:56;;;;;;;3.5;8.6;;;;;;;17.1;73.2;98890;;;;
2022/10/25 15:30:56;;;;;;;3.5;8.6;;;;;;;17;74;98900;;;;
2022/10/25 15:40:56;;;;;;;3.7;7.7;;;;;;;16.5;73.7;98920;;;;
2022/10/25 15:51:56;;;;;;;3.7;7.7;;;;;;;16.2;74.1;98930;;;;
2022/10/25 16:01:56;;;;;;;3.7;7.7;;;;;;;15.9;74.4;98940;;;;
2022/10/25 16:11:56;;;;;;;3.6;5.9;;;;;;;15.5;75;98940;;;;
2022/10/25 16:21:57;;;;;;;3.6;5.9;;;;;;;15.2;75.9;98940;;;;
2022/10/25 16:32:56;;;;;;;3.6;5.9;;;;;;;14.9;76.6;98940;;;;
2022/10/25 16:42:57;;;;;;;6.2;11;;;;;;;14.7;77.4;98950;;;;
2022/10/25 16:52:56;;;;;;;6.2;11;;;;;;;14.7;77.6;98960;;;;
2022/10/25 17:03:56;;;;;;;6.2;11;;;;;;;14.6;77.8;98970;;;;
2022/10/25 17:13:56;;;;;;;5.1;10.3;;;;;;;14.5;77.9;98980;;;;
2022/10/25 17:24:56;;;;;;;5.1;10.3;;;;;;;14.4;77.8;98990;;;;
2022/10/25 17:34:56;;;;;;;5.1;10.3;;;;;;;14.2;77.6;99000;;;;
2022/10/25 17:44:56;;;;;;;6.5;10;;;;;;;14;77.9;99010;;;;
2022/10/25 17:54:56;;;;;;;6.5;10;;;;;;;13.8;78.1;99020;;;;
2022/10/25 18:05:56;;;;;;;6.5;10;;;;;;;13.5;78.2;99020;;;;
2022/10/25 18:16:56;;;;;;;7.9;13.5;;;;;;;13.2;78.7;99020;;;;
2022/10/25 18:26:56;;;;;;;7.9;13.5;;;;;;;12.9;79.5;99030;;;;
2022/10/25 18:37:57;;;;;;;7.9;13.5;;;;;;;12.8;80.5;99030;;;;
2022/10/25 18:48:56;;;;;;;6.1;10.3;;;;;;;12.7;80.7;99040;;;;
2022/10/25 18:58:57;;;;;;;6.1;10.3;;;;;;;12.6;80.8;99040;;;;
2022/10/25 19:09:56;;;;;;;6.9;12.1;;;;;;;12.4;82;99050;;;;
2022/10/25 19:19:56;;;;;;;6.9;12.1;;;;;;;12.4;82.2;99060;;;;
2022/10/25 19:29:56;;;;;;;6.9;12.1;;;;;;;12.4;82;99070;;;;
2022/10/25 19:39:56;;;;;;;7.9;13.3;;;;;;;12.6;82.1;99070;;;;
2022/10/25 19:50:56;;;;;;;7.9;13.3;;;;;;;12.8;81.8;99080;;;;
2022/10/25 20:01:56;;;;;;;7.9;13.3;;;;;;;12.9;81.4;99070;;;;
2022/10/25 20:12:57;;;;;;;7.7;10.9;;;;;;;13.1;81.1;99070;;;;
2022/10/25 20:22:56;;;;;;;7.7;10.9;;;;;;;13.2;80.7;99080;;;;
2022/10/25 20:32:56;;;;;;;7.7;10.9;;;;;;;13.1;80.2;99090;;;;
2022/10/25 20:43:56;;;;;;;6.9;9.5;;;;;;;12.8;80.4;99090;;;;
2022/10/25 20:53:56;;;;;;;6.9;9.5;;;;;;;12.6;80.8;99090;;;;
2022/10/25 21:04:56;;;;;;;6.9;9.5;;;;;;;12.6;81.2;99100;;;;
2022/10/25 21:15:56;;;;;;;7.7;10.9;;;;;;;12.4;81.3;99100;;;;
2022/10/25 21:25:56;;;;;;;7.7;10.9;;;;;;;12.3;81.7;99090;;;;
2022/10/25 21:35:56;;;;;;;7.7;10.9;;;;;;;12.1;82.2;99100;;;;
2022/10/25 21:45:57;;;;;;;6.4;10.5;;;;;;;12;82.3;99100;;;;
2022/10/25 21:56:56;;;;;;;6.4;10.5;;;;;;;11.8;82.3;99100;;;;
2022/10/25 22:07:56;;;;;;;6.4;10.5;;;;;;;11.7;82.7;99090;;;;
2022/10/25 22:18:57;;;;;;;6.3;10.3;;;;;;;11.8;83.5;99090;;;;
2022/10/25 22:29:56;;;;;;;6.3;10.3;;;;;;;12;83.9;99100;;;;
2022/10/25 22:39:56;;;;;;;5.2;10.6;;;;;;;12.2;84.1;99090;;;;
2022/10/25 22:50:56;;;;;;;5.2;10.6;;;;;;;12.2;83.4;99100;;;;
2022/10/25 23:00:56;;;;;;;5.2;10.6;;;;;;;12.1;83;99100;;;;
2022/10/25 23:11:56;;;;;;;5.5;10.4;;;;;;;11.8;82.8;99110;;;;
2022/10/25 23:21:56;;;;;;;5.5;10.4;;;;;;;11.7;83;99110;;;;
2022/10/25 23:32:56;;;;;;;5.5;10.4;;;;;;;11.8;83.5;99110;;;;
2022/10/25 23:42:56;;;;;;;7.2;13.8;;;;;;;12;84;99120;;;;
2022/10/25 23:53:56;;;;;;;7.2;13.8;;;;;;;12.2;83.8;99130;;;;
